Time;durP1;ratioP1;P1;durP2;ratioP2;P2;SDS_P1;SDS_P2;PMS_P1;PMS_P2;Temp;Humidity;BMP_temperature;BMP_pressure;BME280_temperature;BME280_humidity;BME280_pressure;Samples;Min_cycle;Max_cycle;Signal;HPM_P1;HPM_P2
2023/06/19 00:01:29;;;;;;;;;;;22.40;99.90;;;;;;5035188;28;20072;-68
2023/06/19 00:03:55;;;;;;;;;;;22.40;99.90;;;;;;5035149;28;19913;-65
2023/06/19 00:06:20;;;;;;;;;;;22.40;99.90;;;;;;5034638;28;19905;-67
2023/06/19 00:08:46;;;;;;;;;;;22.30;99.90;;;;;;5034978;28;19909;-66
2023/06/19 00:11:11;;;;;;;;;;;22.30;99.90;;;;;;5034096;28;19909;-66
2023/06/19 00:13:37;;;;;;;;;;;22.40;99.90;;;;;;5035197;28;19905;-65
2023/06/19 00:16:03;;;;;;;;;;;22.40;99.90;;;;;;5034836;28;19912;-67
2023/06/19 00:18:28;;;;;;;;;;;22.30;99.90;;;;;;5034899;28;19912;-68
2023/06/19 00:20:55;;;;;;;;;;;22.30;99.90;;;;;;5034476;28;19960;-67
2023/06/19 00:23:24;;;;;;;;;;;22.20;99.90;;;;;;5034827;28;19905;-67
2023/06/19 00:25:50;;;;;;;;;;;22.20;99.90;;;;;;5033540;28;19963;-67
2023/06/19 00:28:19;;;;;;;;;;;22.20;99.90;;;;;;5033925;28;19907;-67
2023/06/19 00:30:45;;;;;;;;;;;22.20;99.90;;;;;;5034065;28;19913;-66
2023/06/19 00:33:11;;;;;;;;;;;22.20;99.90;;;;;;5034796;28;19912;-66
2023/06/19 00:35:36;;;;;;;;;;;22.30;99.90;;;;;;5034708;28;20307;-67
2023/06/19 00:38:02;;;;;;;;;;;22.30;99.90;;;;;;5034724;28;20216;-67
2023/06/19 00:40:29;;;;;;;;;;;22.20;99.90;;;;;;5038100;28;19963;-68
2023/06/19 00:42:55;;;;;;;;;;;22.20;99.90;;;;;;5037607;28;19909;-68
2023/06/19 00:45:21;;;;;;;;;;;22.20;99.90;;;;;;5036960;28;19912;-67
2023/06/19 00:47:46;;;;;;;;;;;22.20;99.90;;;;;;5038291;28;20201;-67
2023/06/19 00:50:12;;;;;;;;;;;22.20;99.90;;;;;;5037615;28;19986;-66
2023/06/19 00:52:38;;;;;;;;;;;22.10;99.90;;;;;;5038115;28;19931;-67
2023/06/19 00:55:04;;;;;;;;;;;22.10;99.90;;;;;;5037864;28;20223;-67
2023/06/19 00:57:31;;;;;;;;;;;22.00;99.90;;;;;;5037447;28;19913;-67
2023/06/19 00:59:56;;;;;;;;;;;22.00;99.90;;;;;;5020292;28;20239;-66
2023/06/19 01:02:23;;;;;;;;;;;22.00;99.90;;;;;;5037467;28;19909;-66
2023/06/19 01:04:49;;;;;;;;;;;21.90;99.90;;;;;;5019900;28;19912;-67
2023/06/19 01:07:16;;;;;;;;;;;21.90;99.90;;;;;;5038025;28;19910;-67
2023/06/19 01:09:46;;;;;;;;;;;21.80;99.90;;;;;;5031267;28;19913;-79
2023/06/19 01:12:33;;;;;;;;;;;21.80;99.90;;;;;;5036742;28;20644;-66
2023/06/19 01:15:00;;;;;;;;;;;21.80;99.90;;;;;;5035951;28;19909;-76
2023/06/19 01:17:29;;;;;;;;;;;21.70;99.90;;;;;;5037785;28;19909;-66
2023/06/19 01:19:58;;;;;;;;;;;21.60;99.90;;;;;;5036650;28;20514;-66
2023/06/19 01:22:24;;;;;;;;;;;21.60;99.90;;;;;;5034322;28;19909;-66
2023/06/19 01:24:50;;;;;;;;;;;21.50;99.90;;;;;;5036965;28;20306;-66
2023/06/19 01:27:15;;;;;;;;;;;21.40;99.90;;;;;;5020084;28;19940;-66
2023/06/19 01:29:41;;;;;;;;;;;21.40;99.90;;;;;;5037321;28;20090;-66
2023/06/19 01:32:19;;;;;;;;;;;21.30;99.90;;;;;;5035481;28;19909;-74
2023/06/19 01:34:46;;;;;;;;;;;21.20;99.90;;;;;;5036847;28;19920;-66
2023/06/19 01:37:12;;;;;;;;;;;21.20;99.90;;;;;;5036988;28;20303;-67
2023/06/19 01:39:37;;;;;;;;;;;21.10;99.90;;;;;;5036984;28;20004;-67
2023/06/19 01:42:04;;;;;;;;;;;21.10;99.90;;;;;;5036618;28;19930;-67
2023/06/19 01:44:30;;;;;;;;;;;21.10;99.90;;;;;;5036370;28;19944;-66
2023/06/19 01:46:55;;;;;;;;;;;21.00;99.90;;;;;;5036940;28;20327;-67
2023/06/19 01:49:21;;;;;;;;;;;21.00;99.90;;;;;;5036737;28;19933;-67
2023/06/19 01:51:46;;;;;;;;;;;21.00;99.90;;;;;;5036139;28;19995;-67
2023/06/19 01:54:12;;;;;;;;;;;21.00;99.90;;;;;;5021211;28;20001;-66
2023/06/19 01:56:38;;;;;;;;;;;20.90;99.90;;;;;;5044653;28;19917;-74
2023/06/19 01:59:04;;;;;;;;;;;20.90;99.90;;;;;;5013167;28;19917;-66
2023/06/19 02:01:29;;;;;;;;;;;20.90;99.90;;;;;;5036881;28;19909;-67
2023/06/19 02:03:55;;;;;;;;;;;20.90;99.90;;;;;;5036872;28;19909;-66
2023/06/19 02:06:21;;;;;;;;;;;20.80;99.90;;;;;;5036649;28;19948;-80
2023/06/19 02:08:47;;;;;;;;;;;20.80;99.90;;;;;;5018434;28;20189;-67
2023/06/19 02:11:13;;;;;;;;;;;20.80;99.90;;;;;;5035598;28;19909;-67
2023/06/19 02:13:38;;;;;;;;;;;20.70;99.90;;;;;;5036438;28;20262;-66
2023/06/19 02:16:04;;;;;;;;;;;20.70;99.90;;;;;;5036409;28;19932;-66
2023/06/19 02:18:29;;;;;;;;;;;20.80;99.90;;;;;;5036593;28;19909;-67
2023/06/19 02:20:55;;;;;;;;;;;20.80;99.90;;;;;;5017078;28;19947;-66
2023/06/19 02:23:20;;;;;;;;;;;20.70;99.90;;;;;;5036255;28;19909;-78
2023/06/19 02:25:46;;;;;;;;;;;20.70;99.90;;;;;;5036347;28;19909;-67
2023/06/19 02:28:11;;;;;;;;;;;20.70;99.90;;;;;;5035382;28;19909;-67
2023/06/19 02:30:37;;;;;;;;;;;20.70;99.90;;;;;;5018359;28;19923;-67
2023/06/19 02:33:03;;;;;;;;;;;20.60;99.90;;;;;;5035882;28;19948;-68
2023/06/19 02:35:28;;;;;;;;;;;20.60;99.90;;;;;;5036084;28;19944;-67
2023/06/19 02:37:54;;;;;;;;;;;20.60;99.90;;;;;;5035316;28;19905;-66
2023/06/19 02:40:19;;;;;;;;;;;20.60;99.90;;;;;;5035816;28;19909;-67
2023/06/19 02:42:45;;;;;;;;;;;20.60;99.90;;;;;;5035984;28;19912;-67
2023/06/19 02:45:10;;;;;;;;;;;20.60;99.90;;;;;;5034655;28;19917;-66
2023/06/19 02:47:36;;;;;;;;;;;20.60;99.90;;;;;;5036158;28;19912;-66
2023/06/19 02:50:03;;;;;;;;;;;20.60;99.90;;;;;;5035935;28;19909;-84
2023/06/19 02:52:29;;;;;;;;;;;20.60;99.90;;;;;;5022304;28;19992;-67
2023/06/19 02:54:55;;;;;;;;;;;20.60;99.90;;;;;;5021507;28;19917;-66
2023/06/19 02:57:20;;;;;;;;;;;20.50;99.90;;;;;;5034751;28;19905;-67
2023/06/19 02:59:46;;;;;;;;;;;20.50;99.90;;;;;;5035515;28;19916;-78
2023/06/19 03:02:12;;;;;;;;;;;20.60;99.90;;;;;;5034677;28;19926;-66
2023/06/19 03:04:37;;;;;;;;;;;20.60;99.90;;;;;;5035481;28;20358;-65
2023/06/19 03:07:03;;;;;;;;;;;20.60;99.90;;;;;;5035708;28;19996;-66
2023/06/19 03:09:28;;;;;;;;;;;20.50;99.90;;;;;;5034586;28;19913;-69
2023/06/19 03:11:54;;;;;;;;;;;20.50;99.90;;;;;;5035399;28;19955;-66
2023/06/19 03:14:20;;;;;;;;;;;20.50;99.90;;;;;;5035410;28;19913;-81
2023/06/19 03:16:46;;;;;;;;;;;20.50;99.90;;;;;;5035981;28;20296;-67
2023/06/19 03:19:11;;;;;;;;;;;20.60;99.90;;;;;;5008913;28;19951;-81
2023/06/19 03:21:37;;;;;;;;;;;20.50;99.90;;;;;;5027626;28;19941;-66
2023/06/19 03:24:03;;;;;;;;;;;20.50;99.90;;;;;;5014519;28;20185;-66
2023/06/19 03:26:28;;;;;;;;;;;20.50;99.90;;;;;;5035648;28;19927;-67
2023/06/19 03:28:54;;;;;;;;;;;20.40;99.90;;;;;;5035387;28;20307;-66
2023/06/19 03:31:20;;;;;;;;;;;20.40;99.90;;;;;;5034442;28;19916;-67
2023/06/19 03:33:45;;;;;;;;;;;20.40;99.90;;;;;;5034961;28;19932;-66
2023/06/19 03:36:11;;;;;;;;;;;20.40;99.90;;;;;;5025814;28;19905;-65
2023/06/19 03:38:36;;;;;;;;;;;20.40;99.90;;;;;;5035605;28;19906;-66
2023/06/19 03:41:02;;;;;;;;;;;20.40;99.90;;;;;;5034850;28;19964;-67
2023/06/19 03:43:27;;;;;;;;;;;20.30;99.90;;;;;;5035229;28;19905;-65
2023/06/19 03:45:53;;;;;;;;;;;20.30;99.90;;;;;;5034554;28;20322;-66
2023/06/19 03:48:18;;;;;;;;;;;20.30;99.90;;;;;;5035304;28;19905;-65
2023/06/19 03:50:44;;;;;;;;;;;20.30;99.90;;;;;;5035424;28;19908;-65
2023/06/19 03:53:09;;;;;;;;;;;20.30;99.90;;;;;;5016771;28;19909;-64
2023/06/19 03:55:35;;;;;;;;;;;20.30;99.90;;;;;;5035264;28;20207;-66
2023/06/19 03:58:01;;;;;;;;;;;20.20;99.90;;;;;;5034347;28;20319;-66
2023/06/19 04:00:26;;;;;;;;;;;20.20;99.90;;;;;;5035183;28;19975;-66
2023/06/19 04:02:52;;;;;;;;;;;20.10;99.90;;;;;;5034358;28;19940;-78
2023/06/19 04:05:19;;;;;;;;;;;20.10;99.90;;;;;;5021880;28;19908;-67
2023/06/19 04:07:46;;;;;;;;;;;20.00;99.90;;;;;;5037215;28;19921;-66
2023/06/19 04:10:11;;;;;;;;;;;19.90;99.90;;;;;;5040814;28;20211;-67
2023/06/19 04:12:37;;;;;;;;;;;19.90;99.90;;;;;;5037688;28;19917;-67
2023/06/19 04:15:03;;;;;;;;;;;19.80;99.90;;;;;;5042429;28;19908;-66
2023/06/19 04:17:29;;;;;;;;;;;19.70;99.90;;;;;;5040854;28;19911;-66
2023/06/19 04:19:54;;;;;;;;;;;19.70;99.90;;;;;;5020459;28;19909;-66
2023/06/19 04:22:20;;;;;;;;;;;19.70;99.90;;;;;;5044616;28;19913;-67
2023/06/19 04:24:46;;;;;;;;;;;19.60;99.90;;;;;;5040886;28;20316;-67
2023/06/19 04:27:11;;;;;;;;;;;19.50;99.90;;;;;;5042075;28;20169;-66
2023/06/19 04:29:37;;;;;;;;;;;19.50;99.90;;;;;;5041307;28;20521;-80
2023/06/19 04:32:03;;;;;;;;;;;19.50;99.90;;;;;;5040802;28;20200;-68
2023/06/19 04:34:29;;;;;;;;;;;19.40;99.90;;;;;;5043513;28;20208;-68
2023/06/19 04:36:58;;;;;;;;;;;19.40;99.90;;;;;;5041463;28;19955;-68
2023/06/19 04:39:24;;;;;;;;;;;19.30;99.90;;;;;;5043025;28;20236;-68
2023/06/19 04:41:49;;;;;;;;;;;19.30;99.90;;;;;;5040367;28;19996;-66
2023/06/19 04:44:15;;;;;;;;;;;19.30;99.90;;;;;;5019457;28;19909;-67
2023/06/19 04:46:41;;;;;;;;;;;19.30;99.90;;;;;;5042889;28;19975;-83
2023/06/19 04:49:07;;;;;;;;;;;19.20;99.90;;;;;;5053227;28;19915;-67
2023/06/19 04:51:32;;;;;;;;;;;19.20;99.90;;;;;;5038493;28;19912;-67
2023/06/19 04:53:58;;;;;;;;;;;19.20;99.90;;;;;;5038071;28;20319;-67
2023/06/19 04:56:24;;;;;;;;;;;19.20;99.90;;;;;;5038048;28;19905;-67
2023/06/19 04:58:51;;;;;;;;;;;19.10;99.90;;;;;;5038128;28;19928;-67
2023/06/19 05:01:16;;;;;;;;;;;19.10;99.90;;;;;;5034654;28;20375;-66
2023/06/19 05:03:48;;;;;;;;;;;19.00;99.90;;;;;;5036192;28;20017;-67
2023/06/19 05:06:14;;;;;;;;;;;19.00;99.90;;;;;;5037652;28;19959;-67
2023/06/19 05:08:39;;;;;;;;;;;19.00;99.90;;;;;;5037798;28;19908;-66
2023/06/19 05:11:05;;;;;;;;;;;18.90;99.90;;;;;;5037973;28;19909;-66
2023/06/19 05:13:30;;;;;;;;;;;18.90;99.90;;;;;;5036230;28;19915;-87
2023/06/19 05:15:56;;;;;;;;;;;18.90;99.90;;;;;;5037601;28;19909;-66
2023/06/19 05:18:22;;;;;;;;;;;19.00;99.90;;;;;;5036692;28;19909;-67
2023/06/19 05:20:47;;;;;;;;;;;19.00;99.90;;;;;;5037802;28;19967;-79
2023/06/19 05:23:13;;;;;;;;;;;19.00;99.90;;;;;;5036326;28;19917;-67
2023/06/19 05:25:38;;;;;;;;;;;18.90;99.90;;;;;;5034404;28;19905;-66
2023/06/19 05:28:04;;;;;;;;;;;18.90;99.90;;;;;;5037383;28;20517;-66
2023/06/19 05:30:29;;;;;;;;;;;18.90;99.90;;;;;;5037320;28;19978;-79
2023/06/19 05:32:55;;;;;;;;;;;18.90;99.90;;;;;;5037514;28;19916;-67
2023/06/19 05:35:21;;;;;;;;;;;18.90;99.90;;;;;;5036006;28;19913;-67
2023/06/19 05:37:47;;;;;;;;;;;18.90;99.90;;;;;;5037611;28;19912;-66
2023/06/19 05:40:13;;;;;;;;;;;18.90;99.90;;;;;;5036582;28;20287;-67
2023/06/19 05:42:39;;;;;;;;;;;18.90;99.90;;;;;;5036758;28;19987;-67
2023/06/19 05:45:05;;;;;;;;;;;18.90;99.90;;;;;;5037188;28;20597;-66
2023/06/19 05:47:30;;;;;;;;;;;18.90;99.90;;;;;;5036736;28;19944;-77
2023/06/19 05:49:57;;;;;;;;;;;18.90;99.90;;;;;;5037248;28;19908;-67
2023/06/19 05:52:22;;;;;;;;;;;18.90;99.90;;;;;;5035906;28;19912;-67
2023/06/19 05:54:48;;;;;;;;;;;18.90;99.90;;;;;;5018004;28;20334;-67
2023/06/19 05:57:15;;;;;;;;;;;18.90;99.90;;;;;;5037010;28;20346;-68
2023/06/19 05:59:41;;;;;;;;;;;18.90;99.90;;;;;;5036401;28;19943;-67
2023/06/19 06:02:07;;;;;;;;;;;19.00;99.90;;;;;;5034165;28;19905;-66
2023/06/19 06:04:34;;;;;;;;;;;19.00;99.90;;;;;;5033987;28;19913;-68
2023/06/19 06:06:59;;;;;;;;;;;19.00;99.90;;;;;;5029749;28;19909;-67
2023/06/19 06:09:26;;;;;;;;;;;19.00;99.90;;;;;;5035781;28;20007;-66
2023/06/19 06:11:52;;;;;;;;;;;19.00;99.90;;;;;;5049320;28;19924;-67
2023/06/19 06:14:18;;;;;;;;;;;19.00;99.90;;;;;;5046230;28;19934;-77
2023/06/19 06:16:46;;;;;;;;;;;19.00;99.90;;;;;;5026407;28;20292;-66
2023/06/19 06:19:11;;;;;;;;;;;19.00;99.90;;;;;;5036643;28;19905;-67
2023/06/19 06:21:37;;;;;;;;;;;19.00;99.90;;;;;;5049411;28;20275;-66
2023/06/19 06:24:02;;;;;;;;;;;19.00;99.90;;;;;;5036704;28;19912;-69
2023/06/19 06:26:28;;;;;;;;;;;19.00;99.90;;;;;;5039538;28;20303;-65
2023/06/19 06:28:55;;;;;;;;;;;19.00;99.90;;;;;;5041455;28;19931;-65
2023/06/19 06:31:22;;;;;;;;;;;19.00;99.90;;;;;;5038433;28;19975;-66
2023/06/19 06:33:48;;;;;;;;;;;19.10;99.90;;;;;;5038013;28;19912;-65
2023/06/19 06:36:14;;;;;;;;;;;19.10;99.90;;;;;;5040609;28;19913;-67
2023/06/19 06:38:40;;;;;;;;;;;19.10;99.90;;;;;;5031883;28;19916;-67
2023/06/19 06:41:05;;;;;;;;;;;19.20;99.90;;;;;;5035842;28;20202;-82
2023/06/19 06:43:31;;;;;;;;;;;19.10;99.90;;;;;;5036363;28;19905;-67
2023/06/19 06:45:56;;;;;;;;;;;19.20;99.90;;;;;;5040282;28;19905;-66
2023/06/19 06:48:22;;;;;;;;;;;19.20;99.90;;;;;;5036551;28;19919;-67
2023/06/19 06:50:48;;;;;;;;;;;19.10;99.90;;;;;;5037538;28;19905;-66
2023/06/19 06:53:13;;;;;;;;;;;19.10;99.90;;;;;;5040365;28;20003;-66
2023/06/19 06:55:39;;;;;;;;;;;19.10;99.90;;;;;;5035149;28;19916;-66
2023/06/19 06:58:05;;;;;;;;;;;19.00;99.90;;;;;;5040660;28;20367;-66
2023/06/19 07:00:30;;;;;;;;;;;19.00;99.90;;;;;;5037331;28;19939;-80
2023/06/19 07:02:56;;;;;;;;;;;19.00;99.90;;;;;;5037673;28;20219;-66
2023/06/19 07:05:22;;;;;;;;;;;18.90;99.90;;;;;;5034416;28;19913;-66
2023/06/19 07:07:47;;;;;;;;;;;18.90;99.90;;;;;;5034998;28;19945;-66
2023/06/19 07:10:13;;;;;;;;;;;18.90;99.90;;;;;;5034729;28;19913;-66
2023/06/19 07:12:48;;;;;;;;;;;18.90;99.90;;;;;;5035855;28;19958;-66
2023/06/19 07:15:14;;;;;;;;;;;18.90;99.90;;;;;;5035519;28;19917;-66
2023/06/19 07:17:39;;;;;;;;;;;19.00;99.90;;;;;;5034830;28;20294;-66
2023/06/19 07:20:06;;;;;;;;;;;18.90;99.90;;;;;;5024615;28;19913;-66
2023/06/19 07:22:32;;;;;;;;;;;18.90;99.90;;;;;;5035329;28;19905;-84
2023/06/19 07:24:57;;;;;;;;;;;19.00;99.90;;;;;;5037096;28;19915;-65
2023/06/19 07:27:27;;;;;;;;;;;19.00;99.90;;;;;;5038380;28;19987;-66
2023/06/19 07:29:53;;;;;;;;;;;19.10;99.90;;;;;;5029772;28;20691;-71
2023/06/19 07:32:19;;;;;;;;;;;19.20;99.90;;;;;;5035616;28;19909;-66
2023/06/19 07:34:45;;;;;;;;;;;19.20;99.90;;;;;;5039882;28;20561;-67
2023/06/19 07:37:17;;;;;;;;;;;19.20;99.90;;;;;;5047258;28;19905;-66
2023/06/19 07:39:44;;;;;;;;;;;19.30;99.90;;;;;;5015568;28;19959;-72
2023/06/19 07:42:10;;;;;;;;;;;19.30;99.90;;;;;;5026053;28;20044;-66
2023/06/19 07:44:36;;;;;;;;;;;19.20;99.90;;;;;;5038185;28;20263;-67
2023/06/19 07:47:01;;;;;;;;;;;19.20;99.90;;;;;;5036874;28;20012;-67
2023/06/19 07:49:27;;;;;;;;;;;19.10;99.90;;;;;;5040916;28;19912;-66
2023/06/19 07:51:52;;;;;;;;;;;19.20;99.90;;;;;;5043341;28;19939;-66
2023/06/19 07:54:18;;;;;;;;;;;19.20;99.90;;;;;;5040677;28;19909;-66
2023/06/19 07:56:43;;;;;;;;;;;19.20;99.90;;;;;;5043630;28;19940;-67
2023/06/19 07:59:09;;;;;;;;;;;19.30;99.90;;;;;;5040300;28;19920;-66
2023/06/19 08:01:34;;;;;;;;;;;19.30;99.90;;;;;;5037748;28;20255;-67
2023/06/19 08:04:00;;;;;;;;;;;19.40;99.90;;;;;;5026433;28;19928;-67
2023/06/19 08:06:25;;;;;;;;;;;19.60;99.90;;;;;;5042166;28;20262;-67
2023/06/19 08:08:51;;;;;;;;;;;19.70;99.90;;;;;;5045286;28;20215;-67
2023/06/19 08:11:17;;;;;;;;;;;19.80;99.90;;;;;;5042253;28;20357;-67
2023/06/19 08:13:42;;;;;;;;;;;19.90;99.90;;;;;;5039486;28;20015;-68
2023/06/19 08:16:10;;;;;;;;;;;20.00;99.90;;;;;;5020491;28;19912;-67
2023/06/19 08:18:35;;;;;;;;;;;20.00;99.90;;;;;;5040916;28;19959;-66
2023/06/19 08:21:01;;;;;;;;;;;20.10;99.90;;;;;;5041316;28;20262;-66
2023/06/19 08:23:27;;;;;;;;;;;20.10;99.90;;;;;;5039464;28;19955;-67
2023/06/19 08:25:52;;;;;;;;;;;20.20;99.90;;;;;;5037775;28;19948;-74
2023/06/19 08:28:18;;;;;;;;;;;20.40;99.90;;;;;;5038185;28;19936;-76
2023/06/19 08:30:44;;;;;;;;;;;20.50;99.90;;;;;;5032858;28;20181;-67
2023/06/19 08:33:10;;;;;;;;;;;20.50;99.90;;;;;;5032909;28;20223;-67
2023/06/19 08:35:35;;;;;;;;;;;20.50;99.90;;;;;;5037975;28;19909;-67
2023/06/19 08:38:01;;;;;;;;;;;20.60;99.90;;;;;;5038177;28;19996;-65
2023/06/19 08:40:26;;;;;;;;;;;20.50;99.90;;;;;;5038174;28;19945;-79
2023/06/19 08:42:52;;;;;;;;;;;20.40;99.90;;;;;;5032659;28;20213;-66
2023/06/19 08:45:20;;;;;;;;;;;20.40;99.90;;;;;;5028033;28;20492;-66
2023/06/19 08:47:46;;;;;;;;;;;20.50;99.90;;;;;;5037295;28;19911;-66
2023/06/19 08:50:12;;;;;;;;;;;20.50;99.90;;;;;;5026776;28;19911;-67
2023/06/19 08:52:37;;;;;;;;;;;20.50;99.90;;;;;;5023539;28;19913;-66
2023/06/19 08:55:03;;;;;;;;;;;20.50;99.90;;;;;;5039219;28;19962;-67
2023/06/19 08:57:39;;;;;;;;;;;20.60;99.90;;;;;;5041402;28;19941;-65
2023/06/19 09:00:09;;;;;;;;;;;20.60;99.90;;;;;;5036814;28;19960;-66
2023/06/19 09:02:39;;;;;;;;;;;20.60;99.90;;;;;;5036846;28;19909;-67
2023/06/19 09:05:15;;;;;;;;;;;20.60;99.90;;;;;;5035357;28;19913;-66
2023/06/19 09:07:40;;;;;;;;;;;20.70;99.90;;;;;;5036745;28;20366;-66
2023/06/19 09:10:16;;;;;;;;;;;20.70;99.90;;;;;;5036952;28;19905;-67
2023/06/19 09:12:43;;;;;;;;;;;20.90;99.90;;;;;;5037140;28;20304;-66
2023/06/19 09:15:13;;;;;;;;;;;21.00;99.90;;;;;;5017712;28;19955;-66
2023/06/19 09:17:38;;;;;;;;;;;21.00;99.90;;;;;;5036718;28;19905;-67
2023/06/19 09:20:05;;;;;;;;;;;21.10;99.90;;;;;;5019195;28;19916;-67
2023/06/19 09:22:31;;;;;;;;;;;21.10;99.90;;;;;;5037111;28;19905;-76
2023/06/19 09:25:00;;;;;;;;;;;21.10;99.90;;;;;;5037151;28;20257;-66
2023/06/19 09:27:31;;;;;;;;;;;21.10;99.90;;;;;;5035739;28;19909;-79
2023/06/19 09:29:56;;;;;;;;;;;21.10;99.90;;;;;;5027433;28;19909;-67
2023/06/19 09:32:22;;;;;;;;;;;21.10;99.90;;;;;;5035056;28;19936;-66
2023/06/19 09:34:49;;;;;;;;;;;21.10;99.90;;;;;;5034268;28;19932;-67
2023/06/19 09:37:14;;;;;;;;;;;21.20;99.90;;;;;;5037936;28;20335;-66
2023/06/19 09:39:40;;;;;;;;;;;21.20;99.90;;;;;;5023263;28;19909;-66
2023/06/19 09:42:07;;;;;;;;;;;21.20;99.90;;;;;;5042159;28;19916;-70
2023/06/19 09:44:38;;;;;;;;;;;21.20;99.90;;;;;;5036149;28;19993;-67
2023/06/19 09:47:06;;;;;;;;;;;21.20;99.90;;;;;;5037949;28;19917;-66
2023/06/19 09:49:33;;;;;;;;;;;21.30;99.90;;;;;;5036807;28;19905;-67
2023/06/19 09:51:59;;;;;;;;;;;21.50;99.90;;;;;;5043655;28;20308;-83
2023/06/19 09:54:25;;;;;;;;;;;21.60;99.90;;;;;;5033468;28;19962;-67
2023/06/19 09:56:55;;;;;;;;;;;21.50;99.90;;;;;;5036302;28;19905;-67
2023/06/19 09:59:22;;;;;;;;;;;21.50;99.90;;;;;;5035685;28;19921;-66
2023/06/19 10:01:48;;;;;;;;;;;21.60;99.90;;;;;;5036086;28;20003;-67
2023/06/19 10:04:14;;;;;;;;;;;21.70;99.90;;;;;;5035829;28;20219;-66
2023/06/19 10:06:46;;;;;;;;;;;21.90;99.90;;;;;;5035141;28;19913;-67
2023/06/19 10:09:14;;;;;;;;;;;22.10;99.90;;;;;;5035655;28;19905;-67
2023/06/19 10:11:52;;;;;;;;;;;22.30;99.90;;;;;;5034741;28;20003;-67
2023/06/19 10:14:18;;;;;;;;;;;22.50;99.90;;;;;;5035433;28;20291;-67
2023/06/19 10:16:44;;;;;;;;;;;22.50;99.90;;;;;;5035640;28;20001;-67
2023/06/19 10:19:16;;;;;;;;;;;22.40;99.90;;;;;;5035510;28;19944;-67
2023/06/19 10:21:46;;;;;;;;;;;22.50;99.90;;;;;;5018099;28;19905;-65
2023/06/19 10:24:18;;;;;;;;;;;22.40;99.90;;;;;;5014122;28;20152;-66
2023/06/19 10:26:44;;;;;;;;;;;22.30;99.90;;;;;;5038698;28;19905;-67
2023/06/19 10:29:17;;;;;;;;;;;22.30;99.90;;;;;;5014386;28;20257;-67
2023/06/19 10:31:44;;;;;;;;;;;22.50;99.90;;;;;;5032576;28;19912;-67
2023/06/19 10:34:10;;;;;;;;;;;22.90;99.90;;;;;;5035164;28;20197;-67
2023/06/19 10:36:35;;;;;;;;;;;23.20;99.90;;;;;;5036242;28;19935;-67
2023/06/19 10:39:01;;;;;;;;;;;23.60;99.90;;;;;;5036571;28;19904;-75
2023/06/19 10:41:26;;;;;;;;;;;23.80;99.90;;;;;;5037842;28;19905;-66
2023/06/19 10:43:53;;;;;;;;;;;23.90;99.90;;;;;;5035137;28;19913;-67
2023/06/19 10:46:18;;;;;;;;;;;24.00;99.90;;;;;;5044311;28;20012;-67
2023/06/19 10:48:44;;;;;;;;;;;24.20;99.90;;;;;;5051351;28;20342;-66
2023/06/19 10:51:09;;;;;;;;;;;24.30;99.90;;;;;;5049352;28;20015;-67
2023/06/19 10:53:36;;;;;;;;;;;24.30;99.90;;;;;;5053470;28;19908;-67
2023/06/19 10:56:02;;;;;;;;;;;24.30;99.90;;;;;;5033883;28;20007;-75
2023/06/19 10:58:28;;;;;;;;;;;24.40;99.90;;;;;;5037608;28;19917;-78
2023/06/19 11:00:54;;;;;;;;;;;24.40;99.90;;;;;;5043607;28;19904;-66
2023/06/19 11:03:20;;;;;;;;;;;24.30;99.90;;;;;;5024372;28;19909;-67
2023/06/19 11:05:46;;;;;;;;;;;24.20;99.90;;;;;;5034971;28;19911;-68
2023/06/19 11:08:16;;;;;;;;;;;24.20;99.90;;;;;;5035449;28;20308;-66
2023/06/19 11:10:42;;;;;;;;;;;24.30;99.90;;;;;;5035820;28;19905;-66
2023/06/19 11:13:13;;;;;;;;;;;24.40;99.90;;;;;;5017687;28;19959;-66
2023/06/19 11:15:38;;;;;;;;;;;24.30;99.90;;;;;;5034087;28;20375;-76
2023/06/19 11:18:04;;;;;;;;;;;24.20;99.90;;;;;;5042811;28;20000;-67
2023/06/19 11:20:30;;;;;;;;;;;24.10;99.90;;;;;;5028314;28;19913;-78
2023/06/19 11:22:57;;;;;;;;;;;24.10;99.90;;;;;;5046533;28;19909;-66
2023/06/19 11:25:23;;;;;;;;;;;24.20;99.90;;;;;;5034814;28;20315;-66
2023/06/19 11:27:52;;;;;;;;;;;24.40;99.90;;;;;;5034426;28;19932;-67
2023/06/19 11:30:20;;;;;;;;;;;24.60;99.90;;;;;;5021952;28;19913;-75
2023/06/19 11:32:48;;;;;;;;;;;24.70;99.90;;;;;;5014738;28;19909;-67
2023/06/19 11:35:16;;;;;;;;;;;25.00;99.90;;;;;;5033515;28;19920;-67
2023/06/19 11:37:42;;;;;;;;;;;25.30;99.90;;;;;;5033823;28;19958;-68
2023/06/19 11:40:14;;;;;;;;;;;25.20;99.90;;;;;;5034413;28;19912;-68
2023/06/19 11:42:46;;;;;;;;;;;25.10;99.90;;;;;;5044085;28;19976;-80
2023/06/19 11:45:11;;;;;;;;;;;25.30;99.90;;;;;;5031063;28;19924;-66
2023/06/19 11:47:37;;;;;;;;;;;25.20;99.90;;;;;;5033830;28;19905;-67
2023/06/19 11:50:06;;;;;;;;;;;25.10;99.90;;;;;;5016853;28;19916;-67
2023/06/19 11:52:32;;;;;;;;;;;25.20;99.90;;;;;;5034240;28;19909;-66
2023/06/19 11:54:58;;;;;;;;;;;25.20;99.90;;;;;;5033973;28;19954;-67
2023/06/19 11:57:23;;;;;;;;;;;25.20;99.90;;;;;;5033316;28;19928;-67
2023/06/19 11:59:49;;;;;;;;;;;25.20;99.90;;;;;;5033934;28;19918;-68
2023/06/19 12:02:14;;;;;;;;;;;25.10;99.90;;;;;;5034205;28;19909;-68
2023/06/19 12:04:40;;;;;;;;;;;25.00;99.90;;;;;;5032837;28;19913;-67
2023/06/19 12:07:06;;;;;;;;;;;25.20;99.90;;;;;;5044272;28;19908;-65
2023/06/19 12:09:34;;;;;;;;;;;25.40;99.90;;;;;;5034161;28;20326;-66
2023/06/19 12:12:00;;;;;;;;;;;25.50;99.90;;;;;;5033862;28;19913;-68
2023/06/19 12:14:26;;;;;;;;;;;25.60;99.90;;;;;;5034967;28;19915;-67
2023/06/19 12:16:52;;;;;;;;;;;25.70;99.90;;;;;;5017437;28;19967;-67
2023/06/19 12:19:17;;;;;;;;;;;25.90;99.90;;;;;;5027767;28;19955;-67
2023/06/19 12:21:43;;;;;;;;;;;26.00;99.90;;;;;;5033168;28;20322;-68
2023/06/19 12:24:08;;;;;;;;;;;26.10;99.90;;;;;;5031698;28;19909;-68
2023/06/19 12:26:36;;;;;;;;;;;26.00;99.90;;;;;;5033337;28;20258;-69
2023/06/19 12:29:05;;;;;;;;;;;25.70;99.90;;;;;;5032684;28;20208;-67
2023/06/19 12:31:34;;;;;;;;;;;25.60;99.90;;;;;;5033254;28;21540;-80
2023/06/19 12:34:01;;;;;;;;;;;25.70;99.90;;;;;;5032819;28;19909;-67
2023/06/19 12:36:26;;;;;;;;;;;25.80;99.90;;;;;;5037469;28;19956;-79
2023/06/19 12:38:53;;;;;;;;;;;26.00;99.90;;;;;;5037084;28;19956;-68
2023/06/19 12:41:22;;;;;;;;;;;25.90;99.90;;;;;;5035516;28;19913;-68
2023/06/19 12:43:47;;;;;;;;;;;26.00;99.90;;;;;;5037344;28;19963;-67
2023/06/19 12:46:13;;;;;;;;;;;26.20;99.90;;;;;;5033789;28;20328;-68
2023/06/19 12:48:40;;;;;;;;;;;26.10;99.90;;;;;;5037448;28;19944;-68
2023/06/19 12:51:06;;;;;;;;;;;26.10;99.90;;;;;;5036941;28;19909;-68
2023/06/19 12:53:31;;;;;;;;;;;25.90;99.90;;;;;;5019453;28;19923;-79
2023/06/19 12:55:57;;;;;;;;;;;25.90;99.90;;;;;;5036851;28;19909;-66
2023/06/19 12:58:22;;;;;;;;;;;26.00;99.90;;;;;;5037544;28;20343;-67
2023/06/19 13:00:48;;;;;;;;;;;26.10;99.90;;;;;;5036857;28;20008;-82
2023/06/19 13:03:14;;;;;;;;;;;25.90;99.90;;;;;;5037342;28;19908;-67
2023/06/19 13:05:39;;;;;;;;;;;25.80;99.90;;;;;;5036683;28;19916;-67
2023/06/19 13:08:05;;;;;;;;;;;25.60;99.90;;;;;;5036472;28;19916;-67
2023/06/19 13:10:30;;;;;;;;;;;25.50;99.90;;;;;;5035772;28;19913;-67
2023/06/19 13:12:58;;;;;;;;;;;25.50;99.90;;;;;;5043671;28;19909;-68
2023/06/19 13:15:23;;;;;;;;;;;25.40;99.90;;;;;;5038475;28;19913;-68
2023/06/19 13:17:49;;;;;;;;;;;25.20;99.90;;;;;;5035192;28;19991;-77
2023/06/19 13:20:15;;;;;;;;;;;25.20;99.90;;;;;;5033767;28;19979;-68
2023/06/19 13:22:41;;;;;;;;;;;25.20;99.90;;;;;;5001174;28;19952;-67
2023/06/19 13:25:06;;;;;;;;;;;25.20;99.90;;;;;;5030839;28;19955;-67
2023/06/19 13:27:32;;;;;;;;;;;25.40;99.90;;;;;;5034993;28;20128;-67
2023/06/19 13:29:59;;;;;;;;;;;25.60;99.90;;;;;;5033435;28;20360;-67
2023/06/19 13:32:25;;;;;;;;;;;25.60;99.90;;;;;;5032268;28;19927;-67
2023/06/19 13:34:53;;;;;;;;;;;25.50;99.90;;;;;;5036456;28;20322;-76
2023/06/19 13:37:19;;;;;;;;;;;25.50;99.90;;;;;;5035918;28;19936;-68
2023/06/19 13:39:45;;;;;;;;;;;25.60;99.90;;;;;;5036844;28;19929;-68
2023/06/19 13:42:10;;;;;;;;;;;25.80;99.90;;;;;;5019223;28;19909;-66
2023/06/19 13:44:36;;;;;;;;;;;25.70;99.90;;;;;;5036902;28;19961;-68
2023/06/19 13:47:02;;;;;;;;;;;25.90;99.90;;;;;;5035418;28;20330;-68
2023/06/19 13:49:28;;;;;;;;;;;26.10;99.90;;;;;;5025812;28;19991;-78
2023/06/19 13:51:53;;;;;;;;;;;26.20;99.90;;;;;;5037105;28;19927;-68
2023/06/19 13:54:20;;;;;;;;;;;26.10;99.90;;;;;;5036267;28;19928;-69
2023/06/19 13:56:47;;;;;;;;;;;26.00;99.90;;;;;;5035551;28;20224;-69
2023/06/19 13:59:12;;;;;;;;;;;25.80;99.90;;;;;;5035963;28;20308;-67
2023/06/19 14:01:39;;;;;;;;;;;25.80;99.90;;;;;;5035918;28;19915;-76
2023/06/19 14:04:04;;;;;;;;;;;26.00;99.90;;;;;;5035725;28;19913;-68
2023/06/19 14:06:30;;;;;;;;;;;26.10;99.90;;;;;;5035991;28;20181;-67
2023/06/19 14:08:55;;;;;;;;;;;26.20;99.90;;;;;;5036372;28;19992;-68
2023/06/19 14:11:21;;;;;;;;;;;26.40;99.90;;;;;;5036341;28;20009;-68